sensor_id;sensor_type;location;lat;lon;timestamp;pressure;altitude;pressure_sealevel;temperature;humidity
65685;BME280;52405;50.844;-1.062;2022-12-07T00:01:36;102530.97;;;4.83;68.68
65685;BME280;52405;50.844;-1.062;2022-12-07T00:04:04;102523.72;;;4.79;68.51
65685;BME280;52405;50.844;-1.062;2022-12-07T00:06:35;102525.38;;;4.79;67.75
65685;BME280;52405;50.844;-1.062;2022-12-07T00:09:03;102524.34;;;4.77;68.89
65685;BME280;52405;50.844;-1.062;2022-12-07T00:11:29;102523.47;;;4.76;68.62
65685;BME280;52405;50.844;-1.062;2022-12-07T00:13:59;102529.50;;;4.77;68.72
65685;BME280;52405;50.844;-1.062;2022-12-07T00:16:30;102445.97;;;4.34;68.44
65685;BME280;52405;50.844;-1.062;2022-12-07T00:18:56;102515.09;;;4.79;68.85
65685;BME280;52405;50.844;-1.062;2022-12-07T00:21:28;102411.16;;;4.18;67.89
65685;BME280;52405;50.844;-1.062;2022-12-07T00:23:55;102520.59;;;4.73;67.89
65685;BME280;52405;50.844;-1.062;2022-12-07T00:26:22;102517.50;;;4.67;68.09
65685;BME280;52405;50.844;-1.062;2022-12-07T00:28:51;102508.47;;;4.62;68.49
65685;BME280;52405;50.844;-1.062;2022-12-07T00:31:18;102477.22;;;4.38;67.69
65685;BME280;52405;50.844;-1.062;2022-12-07T00:33:44;102495.16;;;4.47;69.14
65685;BME280;52405;50.844;-1.062;2022-12-07T00:36:13;102503.91;;;4.49;68.51
65685;BME280;52405;50.844;-1.062;2022-12-07T00:38:40;102494.84;;;4.34;67.94
65685;BME280;52405;50.844;-1.062;2022-12-07T00:41:11;102519.63;;;4.33;69.24
65685;BME280;52405;50.844;-1.062;2022-12-07T00:43:37;102503.44;;;4.15;68.97
65685;BME280;52405;50.844;-1.062;2022-12-07T00:46:03;102504.56;;;4.28;69.70
65685;BME280;52405;50.844;-1.062;2022-12-07T00:48:28;102513.06;;;4.27;69.01
65685;BME280;52405;50.844;-1.062;2022-12-07T00:50:54;102515.13;;;4.31;69.78
65685;BME280;52405;50.844;-1.062;2022-12-07T00:53:20;102505.59;;;4.30;69.56
65685;BME280;52405;50.844;-1.062;2022-12-07T00:55:46;102445.94;;;4.04;69.27
65685;BME280;52405;50.844;-1.062;2022-12-07T00:58:11;102507.75;;;4.44;68.56
65685;BME280;52405;50.844;-1.062;2022-12-07T01:00:39;102477.31;;;4.30;69.23
65685;BME280;52405;50.844;-1.062;2022-12-07T01:03:05;102492.16;;;4.42;69.01
65685;BME280;52405;50.844;-1.062;2022-12-07T01:05:31;102507.81;;;4.54;68.91
65685;BME280;52405;50.844;-1.062;2022-12-07T01:07:56;102432.38;;;4.16;68.46
65685;BME280;52405;50.844;-1.062;2022-12-07T01:10:22;102507.16;;;4.57;69.25
65685;BME280;52405;50.844;-1.062;2022-12-07T01:12:47;102511.78;;;4.61;69.34
65685;BME280;52405;50.844;-1.062;2022-12-07T01:15:13;102487.81;;;4.52;69.47
65685;BME280;52405;50.844;-1.062;2022-12-07T01:17:39;102494.81;;;4.63;69.37
65685;BME280;52405;50.844;-1.062;2022-12-07T01:20:05;102508.16;;;4.78;70.10
65685;BME280;52405;50.844;-1.062;2022-12-07T01:22:30;102507.41;;;4.89;69.03
65685;BME280;52405;50.844;-1.062;2022-12-07T01:24:56;102498.69;;;4.97;69.36
65685;BME280;52405;50.844;-1.062;2022-12-07T01:27:21;102498.72;;;5.08;69.32
65685;BME280;52405;50.844;-1.062;2022-12-07T01:29:47;102499.66;;;5.18;69.19
65685;BME280;52405;50.844;-1.062;2022-12-07T01:32:12;102396.41;;;4.76;70.16
65685;BME280;52405;50.844;-1.062;2022-12-07T01:34:38;102485.47;;;5.24;69.35
65685;BME280;52405;50.844;-1.062;2022-12-07T01:37:03;102500.03;;;5.44;69.18
65685;BME280;52405;50.844;-1.062;2022-12-07T01:39:29;102474.28;;;5.44;68.83
65685;BME280;52405;50.844;-1.062;2022-12-07T01:41:54;102488.06;;;5.54;69.19
65685;BME280;52405;50.844;-1.062;2022-12-07T01:44:26;102426.47;;;5.27;68.89
65685;BME280;52405;50.844;-1.062;2022-12-07T01:46:54;102488.97;;;5.65;68.91
65685;BME280;52405;50.844;-1.062;2022-12-07T01:49:26;102485.88;;;5.69;68.30
65685;BME280;52405;50.844;-1.062;2022-12-07T01:52:09;102394.41;;;5.23;69.17
65685;BME280;52405;50.844;-1.062;2022-12-07T01:54:38;102454.16;;;5.60;68.07
65685;BME280;52405;50.844;-1.062;2022-12-07T01:57:06;102481.47;;;5.78;68.97
65685;BME280;52405;50.844;-1.062;2022-12-07T01:59:33;102485.09;;;5.80;69.14
65685;BME280;52405;50.844;-1.062;2022-12-07T02:01:59;102487.94;;;5.84;68.11
65685;BME280;52405;50.844;-1.062;2022-12-07T02:04:26;102472.09;;;5.79;68.97
65685;BME280;52405;50.844;-1.062;2022-12-07T02:06:51;102492.69;;;5.89;68.48
65685;BME280;52405;50.844;-1.062;2022-12-07T02:09:18;102493.75;;;5.81;68.47
65685;BME280;52405;50.844;-1.062;2022-12-07T02:11:44;102467.81;;;5.79;68.91
65685;BME280;52405;50.844;-1.062;2022-12-07T02:14:09;102476.19;;;5.87;68.28
65685;BME280;52405;50.844;-1.062;2022-12-07T02:16:57;102491.78;;;5.99;68.81
65685;BME280;52405;50.844;-1.062;2022-12-07T02:24:55;102494.91;;;6.05;67.78
65685;BME280;52405;50.844;-1.062;2022-12-07T02:27:27;102499.25;;;6.06;67.69
65685;BME280;52405;50.844;-1.062;2022-12-07T02:30:07;102497.97;;;6.11;68.43
65685;BME280;52405;50.844;-1.062;2022-12-07T02:35:43;102505.84;;;6.23;67.90
65685;BME280;52405;50.844;-1.062;2022-12-07T02:38:37;102454.53;;;5.95;68.58
65685;BME280;52405;50.844;-1.062;2022-12-07T02:41:11;102501.84;;;6.27;68.16
65685;BME280;52405;50.844;-1.062;2022-12-07T02:43:44;102518.22;;;6.27;68.23
65685;BME280;52405;50.844;-1.062;2022-12-07T02:46:16;102476.81;;;6.15;67.48
65685;BME280;52405;50.844;-1.062;2022-12-07T02:48:43;102468.16;;;6.15;67.94
65685;BME280;52405;50.844;-1.062;2022-12-07T02:51:09;102497.69;;;6.29;67.72
65685;BME280;52405;50.844;-1.062;2022-12-07T02:53:43;102425.78;;;5.91;68.37
65685;BME280;52405;50.844;-1.062;2022-12-07T03:01:28;102413.25;;;6.06;67.91
65685;BME280;52405;50.844;-1.062;2022-12-07T03:06:58;102468.97;;;6.46;67.82
65685;BME280;52405;50.844;-1.062;2022-12-07T03:09:42;102479.28;;;6.56;67.31
65685;BME280;52405;50.844;-1.062;2022-12-07T03:12:14;102393.16;;;6.02;67.56
65685;BME280;52405;50.844;-1.062;2022-12-07T03:14:48;102480.31;;;6.48;67.46
65685;BME280;52405;50.844;-1.062;2022-12-07T03:17:21;102478.66;;;6.49;67.48
65685;BME280;52405;50.844;-1.062;2022-12-07T03:19:51;102436.41;;;6.26;67.54
65685;BME280;52405;50.844;-1.062;2022-12-07T03:22:21;102466.94;;;6.42;67.86
65685;BME280;52405;50.844;-1.062;2022-12-07T03:24:52;102452.50;;;6.34;67.42
65685;BME280;52405;50.844;-1.062;2022-12-07T03:29:55;102466.94;;;6.42;67.31
65685;BME280;52405;50.844;-1.062;2022-12-07T03:32:40;102475.03;;;6.47;67.80
65685;BME280;52405;50.844;-1.062;2022-12-07T03:37:54;102476.19;;;6.50;67.92
65685;BME280;52405;50.844;-1.062;2022-12-07T03:40:35;102472.56;;;6.48;68.08
65685;BME280;52405;50.844;-1.062;2022-12-07T03:43:03;102438.44;;;6.30;68.00
65685;BME280;52405;50.844;-1.062;2022-12-07T03:45:42;102487.78;;;6.55;68.05
65685;BME280;52405;50.844;-1.062;2022-12-07T03:48:49;102479.41;;;6.58;67.50
65685;BME280;52405;50.844;-1.062;2022-12-07T03:51:34;102481.19;;;6.59;67.53
65685;BME280;52405;50.844;-1.062;2022-12-07T03:54:49;102485.59;;;6.60;67.06
65685;BME280;52405;50.844;-1.062;2022-12-07T03:57:07;102473.97;;;6.55;67.96
65685;BME280;52405;50.844;-1.062;2022-12-07T03:59:33;102474.03;;;6.67;67.03
65685;BME280;52405;50.844;-1.062;2022-12-07T04:02:04;102482.03;;;6.70;66.40
65685;BME280;52405;50.844;-1.062;2022-12-07T04:04:30;102475.84;;;6.68;67.10
65685;BME280;52405;50.844;-1.062;2022-12-07T04:06:56;102469.16;;;6.60;66.43
65685;BME280;52405;50.844;-1.062;2022-12-07T04:09:22;102482.59;;;6.66;66.95
65685;BME280;52405;50.844;-1.062;2022-12-07T04:11:48;102410.47;;;6.25;66.58
65685;BME280;52405;50.844;-1.062;2022-12-07T04:14:13;102461.06;;;6.55;66.68
65685;BME280;52405;50.844;-1.062;2022-12-07T04:16:50;102439.69;;;6.46;66.41
65685;BME280;52405;50.844;-1.062;2022-12-07T04:19:17;102477.53;;;6.67;66.99
65685;BME280;52405;50.844;-1.062;2022-12-07T04:21:43;102433.91;;;6.38;66.77
65685;BME280;52405;50.844;-1.062;2022-12-07T04:24:09;102483.47;;;6.66;67.01
65685;BME280;52405;50.844;-1.062;2022-12-07T04:26:35;102430.66;;;6.41;66.05
65685;BME280;52405;50.844;-1.062;2022-12-07T04:29:00;102477.53;;;6.67;66.17
65685;BME280;52405;50.844;-1.062;2022-12-07T04:31:26;102473.28;;;6.68;66.20
65685;BME280;52405;50.844;-1.062;2022-12-07T04:33:51;102451.00;;;6.58;66.47
65685;BME280;52405;50.844;-1.062;2022-12-07T04:36:17;102467.94;;;6.77;66.09
65685;BME280;52405;50.844;-1.062;2022-12-07T04:38:44;102466.50;;;6.80;65.80
65685;BME280;52405;50.844;-1.062;2022-12-07T04:41:10;102457.25;;;6.72;66.47
65685;BME280;52405;50.844;-1.062;2022-12-07T04:43:35;102469.47;;;6.74;66.42
65685;BME280;52405;50.844;-1.062;2022-12-07T04:46:02;102471.47;;;6.67;65.45
65685;BME280;52405;50.844;-1.062;2022-12-07T04:48:27;102463.66;;;6.55;66.49
65685;BME280;52405;50.844;-1.062;2022-12-07T04:50:53;102398.66;;;6.06;66.12
65685;BME280;52405;50.844;-1.062;2022-12-07T04:53:18;102444.00;;;6.25;66.52
65685;BME280;52405;50.844;-1.062;2022-12-07T04:55:44;102463.59;;;6.33;67.03
65685;BME280;52405;50.844;-1.062;2022-12-07T04:58:11;102464.25;;;6.30;67.23
65685;BME280;52405;50.844;-1.062;2022-12-07T05:00:36;102456.63;;;6.32;66.26
65685;BME280;52405;50.844;-1.062;2022-12-07T05:03:02;102458.31;;;6.31;66.36
65685;BME280;52405;50.844;-1.062;2022-12-07T05:05:27;102447.38;;;6.24;66.79
65685;BME280;52405;50.844;-1.062;2022-12-07T05:07:53;102454.22;;;6.23;66.05
65685;BME280;52405;50.844;-1.062;2022-12-07T05:10:18;102357.78;;;5.58;66.57
65685;BME280;52405;50.844;-1.062;2022-12-07T05:12:44;102421.50;;;5.91;67.14
65685;BME280;52405;50.844;-1.062;2022-12-07T05:15:11;102451.13;;;6.17;66.69
65685;BME280;52405;50.844;-1.062;2022-12-07T05:17:36;102457.72;;;6.24;66.56
65685;BME280;52405;50.844;-1.062;2022-12-07T05:20:02;102441.63;;;6.16;66.90
65685;BME280;52405;50.844;-1.062;2022-12-07T05:22:28;102456.50;;;6.30;66.34
65685;BME280;52405;50.844;-1.062;2022-12-07T05:24:54;102461.28;;;6.36;67.57
65685;BME280;52405;50.844;-1.062;2022-12-07T05:27:20;102458.50;;;6.45;66.26
65685;BME280;52405;50.844;-1.062;2022-12-07T05:29:45;102447.31;;;6.44;66.25
65685;BME280;52405;50.844;-1.062;2022-12-07T05:32:11;102438.88;;;6.47;66.19
65685;BME280;52405;50.844;-1.062;2022-12-07T05:34:37;102458.06;;;6.61;66.16
65685;BME280;52405;50.844;-1.062;2022-12-07T05:37:02;102435.00;;;6.52;66.87
65685;BME280;52405;50.844;-1.062;2022-12-07T05:39:28;102439.88;;;6.59;66.78
65685;BME280;52405;50.844;-1.062;2022-12-07T05:41:53;102449.16;;;6.67;66.50
65685;BME280;52405;50.844;-1.062;2022-12-07T05:44:38;102434.38;;;6.54;65.40
65685;BME280;52405;50.844;-1.062;2022-12-07T05:47:04;102450.69;;;6.65;66.24
65685;BME280;52405;50.844;-1.062;2022-12-07T05:49:30;102360.38;;;6.11;65.83
65685;BME280;52405;50.844;-1.062;2022-12-07T05:51:55;102455.84;;;6.65;65.36
65685;BME280;52405;50.844;-1.062;2022-12-07T05:54:21;102436.56;;;6.50;66.59
65685;BME280;52405;50.844;-1.062;2022-12-07T05:56:46;102454.47;;;6.59;65.90
65685;BME280;52405;50.844;-1.062;2022-12-07T05:59:12;102408.63;;;6.34;65.99
65685;BME280;52405;50.844;-1.062;2022-12-07T06:02:08;102452.66;;;6.57;65.92
65685;BME280;52405;50.844;-1.062;2022-12-07T06:04:36;102455.50;;;6.61;65.93
65685;BME280;52405;50.844;-1.062;2022-12-07T06:07:03;102411.47;;;6.37;66.36
65685;BME280;52405;50.844;-1.062;2022-12-07T06:09:29;102452.38;;;6.65;66.40
65685;BME280;52405;50.844;-1.062;2022-12-07T06:11:55;102456.91;;;6.67;66.55
65685;BME280;52405;50.844;-1.062;2022-12-07T06:14:40;102440.59;;;6.68;66.23
65685;BME280;52405;50.844;-1.062;2022-12-07T06:17:08;102429.13;;;6.65;65.95
65685;BME280;52405;50.844;-1.062;2022-12-07T06:19:34;102448.06;;;6.75;66.22
65685;BME280;52405;50.844;-1.062;2022-12-07T06:22:00;102440.06;;;6.72;65.06
65685;BME280;52405;50.844;-1.062;2022-12-07T06:24:26;102443.31;;;6.70;65.09
65685;BME280;52405;50.844;-1.062;2022-12-07T06:26:51;102449.03;;;6.66;66.24
65685;BME280;52405;50.844;-1.062;2022-12-07T06:29:17;102443.34;;;6.60;65.36
65685;BME280;52405;50.844;-1.062;2022-12-07T06:31:43;102427.50;;;6.55;65.38
65685;BME280;52405;50.844;-1.062;2022-12-07T06:34:12;102460.25;;;6.66;65.21
65685;BME280;52405;50.844;-1.062;2022-12-07T06:36:38;102462.69;;;6.65;65.56
65685;BME280;52405;50.844;-1.062;2022-12-07T06:39:04;102438.97;;;6.59;65.41
65685;BME280;52405;50.844;-1.062;2022-12-07T06:41:30;102460.50;;;6.69;65.95
65685;BME280;52405;50.844;-1.062;2022-12-07T06:43:56;102437.75;;;6.65;65.74
65685;BME280;52405;50.844;-1.062;2022-12-07T06:46:21;102457.63;;;6.77;66.22
65685;BME280;52405;50.844;-1.062;2022-12-07T06:48:47;102456.94;;;6.79;65.06
65685;BME280;52405;50.844;-1.062;2022-12-07T06:51:15;102438.91;;;6.69;64.84
65685;BME280;52405;50.844;-1.062;2022-12-07T06:53:44;102456.69;;;6.76;65.35
65685;BME280;52405;50.844;-1.062;2022-12-07T06:56:09;102457.25;;;6.72;66.18
65685;BME280;52405;50.844;-1.062;2022-12-07T06:58:35;102459.81;;;6.72;65.05
65685;BME280;52405;50.844;-1.062;2022-12-07T07:01:00;102463.19;;;6.71;65.14
65685;BME280;52405;50.844;-1.062;2022-12-07T07:03:26;102448.22;;;6.67;65.62
65685;BME280;52405;50.844;-1.062;2022-12-07T07:05:51;102434.47;;;6.56;64.74
65685;BME280;52405;50.844;-1.062;2022-12-07T07:08:17;102454.53;;;6.70;66.07
65685;BME280;52405;50.844;-1.062;2022-12-07T07:10:42;102438.97;;;6.59;65.16
65685;BME280;52405;50.844;-1.062;2022-12-07T07:13:08;102447.88;;;6.62;65.51
65685;BME280;52405;50.844;-1.062;2022-12-07T07:15:34;102444.16;;;6.59;65.31
65685;BME280;52405;50.844;-1.062;2022-12-07T07:18:00;102358.84;;;6.03;65.19
65685;BME280;52405;50.844;-1.062;2022-12-07T07:20:26;102450.31;;;6.61;65.26
65685;BME280;52405;50.844;-1.062;2022-12-07T07:22:55;102396.81;;;6.26;65.36
65685;BME280;52405;50.844;-1.062;2022-12-07T07:25:21;102398.84;;;6.30;64.83
65685;BME280;52405;50.844;-1.062;2022-12-07T07:27:47;102444.78;;;6.56;65.94
65685;BME280;52405;50.844;-1.062;2022-12-07T07:30:12;102445.72;;;6.56;65.05
65685;BME280;52405;50.844;-1.062;2022-12-07T07:32:38;102409.03;;;6.28;65.17
65685;BME280;52405;50.844;-1.062;2022-12-07T07:35:04;102437.47;;;6.50;65.67
65685;BME280;52405;50.844;-1.062;2022-12-07T07:37:30;102400.53;;;6.29;65.06
65685;BME280;52405;50.844;-1.062;2022-12-07T07:39:55;102450.06;;;6.57;65.21
65685;BME280;52405;50.844;-1.062;2022-12-07T07:42:20;102427.53;;;6.45;65.71
65685;BME280;52405;50.844;-1.062;2022-12-07T07:44:46;102414.72;;;6.34;65.14
65685;BME280;52405;50.844;-1.062;2022-12-07T07:47:11;102403.66;;;6.25;65.11
65685;BME280;52405;50.844;-1.062;2022-12-07T07:49:37;102406.22;;;6.25;65.39
65685;BME280;52405;50.844;-1.062;2022-12-07T07:52:02;102457.34;;;6.51;64.68
65685;BME280;52405;50.844;-1.062;2022-12-07T07:54:28;102442.44;;;6.37;65.32
65685;BME280;52405;50.844;-1.062;2022-12-07T07:56:54;102461.09;;;6.45;65.44
65685;BME280;52405;50.844;-1.062;2022-12-07T07:59:19;102426.22;;;6.28;65.33
65685;BME280;52405;50.844;-1.062;2022-12-07T08:01:44;102457.50;;;6.43;65.15
65685;BME280;52405;50.844;-1.062;2022-12-07T08:04:10;102447.31;;;6.34;65.80
65685;BME280;52405;50.844;-1.062;2022-12-07T08:06:35;102458.03;;;6.39;64.68
65685;BME280;52405;50.844;-1.062;2022-12-07T08:09:02;102466.66;;;6.39;65.33
65685;BME280;52405;50.844;-1.062;2022-12-07T08:11:27;102470.56;;;6.34;64.56
65685;BME280;52405;50.844;-1.062;2022-12-07T08:13:53;102443.25;;;6.15;64.91
65685;BME280;52405;50.844;-1.062;2022-12-07T08:16:18;102471.09;;;6.30;65.48
65685;BME280;52405;50.844;-1.062;2022-12-07T08:18:44;102472.66;;;6.28;65.22
65685;BME280;52405;50.844;-1.062;2022-12-07T08:21:12;102469.19;;;6.27;64.89
65685;BME280;52405;50.844;-1.062;2022-12-07T08:23:38;102467.38;;;6.26;65.57
65685;BME280;52405;50.844;-1.062;2022-12-07T08:26:09;102466.47;;;6.26;64.92
65685;BME280;52405;50.844;-1.062;2022-12-07T08:28:34;102449.44;;;6.17;65.44
65685;BME280;52405;50.844;-1.062;2022-12-07T08:31:08;102440.47;;;6.12;65.87
65685;BME280;52405;50.844;-1.062;2022-12-07T08:33:35;102450.38;;;6.18;65.15
65685;BME280;52405;50.844;-1.062;2022-12-07T08:36:03;102401.81;;;5.92;65.86
65685;BME280;52405;50.844;-1.062;2022-12-07T08:38:29;102453.84;;;6.18;65.47
65685;BME280;52405;50.844;-1.062;2022-12-07T08:40:58;102463.22;;;6.28;65.88
65685;BME280;52405;50.844;-1.062;2022-12-07T08:43:24;102340.41;;;5.55;65.83
65685;BME280;52405;50.844;-1.062;2022-12-07T08:46:17;102464.91;;;6.28;65.96
65685;BME280;52405;50.844;-1.062;2022-12-07T08:48:48;102449.22;;;6.14;65.58
65685;BME280;52405;50.844;-1.062;2022-12-07T08:51:16;102406.03;;;5.91;65.66
65685;BME280;52405;50.844;-1.062;2022-12-07T08:53:42;102441.22;;;6.11;65.70
65685;BME280;52405;50.844;-1.062;2022-12-07T08:56:09;102469.31;;;6.29;65.21
65685;BME280;52405;50.844;-1.062;2022-12-07T08:58:35;102478.84;;;6.30;66.06
65685;BME280;52405;50.844;-1.062;2022-12-07T09:01:03;102459.91;;;6.19;65.30
65685;BME280;52405;50.844;-1.062;2022-12-07T09:03:31;102436.13;;;6.01;64.93
65685;BME280;52405;50.844;-1.062;2022-12-07T09:05:57;102383.94;;;5.63;65.00
65685;BME280;52405;50.844;-1.062;2022-12-07T09:08:28;102487.03;;;6.04;65.45
65685;BME280;52405;50.844;-1.062;2022-12-07T09:10:56;102456.84;;;5.82;66.03
65685;BME280;52405;50.844;-1.062;2022-12-07T09:13:21;102482.78;;;5.94;65.87
65685;BME280;52405;50.844;-1.062;2022-12-07T09:15:47;102484.81;;;5.88;65.86
65685;BME280;52405;50.844;-1.062;2022-12-07T09:18:13;102470.00;;;5.75;65.92
65685;BME280;52405;50.844;-1.062;2022-12-07T09:20:38;102480.84;;;5.81;65.51
65685;BME280;52405;50.844;-1.062;2022-12-07T09:23:06;102425.72;;;5.48;66.13
65685;BME280;52405;50.844;-1.062;2022-12-07T09:25:32;102468.22;;;5.74;66.48
65685;BME280;52405;50.844;-1.062;2022-12-07T09:27:58;102469.13;;;5.74;66.07
65685;BME280;52405;50.844;-1.062;2022-12-07T09:30:25;102482.78;;;5.84;66.75
65685;BME280;52405;50.844;-1.062;2022-12-07T09:32:53;102448.00;;;5.68;65.47
65685;BME280;52405;50.844;-1.062;2022-12-07T09:35:19;102414.50;;;5.48;65.59
65685;BME280;52405;50.844;-1.062;2022-12-07T09:37:44;102465.78;;;5.75;65.16
65685;BME280;52405;50.844;-1.062;2022-12-07T09:40:10;102452.63;;;5.72;65.68
65685;BME280;52405;50.844;-1.062;2022-12-07T09:42:38;102469.50;;;5.79;66.13
65685;BME280;52405;50.844;-1.062;2022-12-07T09:45:15;102445.53;;;5.59;64.90
65685;BME280;52405;50.844;-1.062;2022-12-07T09:47:42;102460.22;;;5.60;65.26
65685;BME280;52405;50.844;-1.062;2022-12-07T09:50:14;102467.19;;;5.62;65.64
65685;BME280;52405;50.844;-1.062;2022-12-07T09:52:41;102464.63;;;5.62;65.76
65685;BME280;52405;50.844;-1.062;2022-12-07T09:55:11;102453.66;;;5.64;66.68
65685;BME280;52405;50.844;-1.062;2022-12-07T09:57:37;102461.78;;;5.69;66.03
65685;BME280;52405;50.844;-1.062;2022-12-07T10:00:10;102468.22;;;5.74;66.55
65685;BME280;52405;50.844;-1.062;2022-12-07T10:02:44;102440.38;;;5.59;66.02
65685;BME280;52405;50.844;-1.062;2022-12-07T10:05:19;102400.06;;;5.39;66.28
65685;BME280;52405;50.844;-1.062;2022-12-07T10:07:46;102449.66;;;5.68;66.79
65685;BME280;52405;50.844;-1.062;2022-12-07T10:10:25;102458.81;;;5.85;66.29
65685;BME280;52405;50.844;-1.062;2022-12-07T10:12:59;102443.34;;;5.85;66.42
65685;BME280;52405;50.844;-1.062;2022-12-07T10:15:54;102447.06;;;5.98;65.76
65685;BME280;52405;50.844;-1.062;2022-12-07T10:21:01;102451.81;;;6.04;66.03
65685;BME280;52405;50.844;-1.062;2022-12-07T10:23:28;102448.47;;;6.05;65.10
65685;BME280;52405;50.844;-1.062;2022-12-07T10:25:53;102445.91;;;6.05;65.71
65685;BME280;52405;50.844;-1.062;2022-12-07T10:28:20;102447.69;;;6.06;65.41
65685;BME280;52405;50.844;-1.062;2022-12-07T10:33:29;102350.66;;;5.66;65.12
65685;BME280;52405;50.844;-1.062;2022-12-07T10:35:55;102431.03;;;6.13;64.83
65685;BME280;52405;50.844;-1.062;2022-12-07T10:38:21;102429.00;;;6.09;64.15
65685;BME280;52405;50.844;-1.062;2022-12-07T10:40:47;102405.16;;;5.91;65.23
65685;BME280;52405;50.844;-1.062;2022-12-07T10:48:54;102408.25;;;5.87;65.79
65685;BME280;52405;50.844;-1.062;2022-12-07T10:51:27;102408.25;;;5.87;64.85
65685;BME280;52405;50.844;-1.062;2022-12-07T10:54:12;102342.06;;;5.55;65.89
65685;BME280;52405;50.844;-1.062;2022-12-07T10:59:40;102402.91;;;6.16;65.86
65685;BME280;52405;50.844;-1.062;2022-12-07T11:10:24;102391.50;;;6.56;63.78
65685;BME280;52405;50.844;-1.062;2022-12-07T11:12:56;102385.50;;;6.68;64.10
65685;BME280;52405;50.844;-1.062;2022-12-07T11:15:30;102368.44;;;6.70;63.53
65685;BME280;52405;50.844;-1.062;2022-12-07T11:21:18;102386.19;;;7.11;62.80
65685;BME280;52405;50.844;-1.062;2022-12-07T11:32:15;102321.97;;;7.16;63.19
65685;BME280;52405;50.844;-1.062;2022-12-07T11:34:54;102359.84;;;7.39;63.04
65685;BME280;52405;50.844;-1.062;2022-12-07T11:37:31;102368.66;;;7.41;61.63
65685;BME280;52405;50.844;-1.062;2022-12-07T11:40:13;102356.06;;;7.33;61.05
65685;BME280;52405;50.844;-1.062;2022-12-07T11:42:44;102346.94;;;7.27;61.32
65685;BME280;52405;50.844;-1.062;2022-12-07T11:47:58;102305.91;;;7.20;61.93
65685;BME280;52405;50.844;-1.062;2022-12-07T11:50:52;102337.97;;;7.45;61.02
65685;BME280;52405;50.844;-1.062;2022-12-07T11:53:26;102199.38;;;6.77;61.68
65685;BME280;52405;50.844;-1.062;2022-12-07T11:56:09;102322.56;;;7.59;61.38
65685;BME280;52405;50.844;-1.062;2022-12-07T12:01:31;102325.03;;;7.81;60.56
65685;BME280;52405;50.844;-1.062;2022-12-07T12:06:42;102211.63;;;7.38;60.75
65685;BME280;52405;50.844;-1.062;2022-12-07T12:22:48;102202.91;;;7.73;59.97
65685;BME280;52405;50.844;-1.062;2022-12-07T12:25:41;102298.28;;;8.29;59.69
65685;BME280;52405;50.844;-1.062;2022-12-07T12:30:44;102285.97;;;8.38;59.67
65685;BME280;52405;50.844;-1.062;2022-12-07T12:33:19;102257.22;;;8.22;59.17
65685;BME280;52405;50.844;-1.062;2022-12-07T12:36:21;102282.28;;;8.23;59.43
65685;BME280;52405;50.844;-1.062;2022-12-07T12:54:39;102196.34;;;7.41;59.81
65685;BME280;52405;50.844;-1.062;2022-12-07T12:57:30;102237.00;;;7.67;60.20
65685;BME280;52405;50.844;-1.062;2022-12-07T13:00:00;102251.28;;;7.74;59.66
65685;BME280;52405;50.844;-1.062;2022-12-07T13:15:34;102231.28;;;7.60;60.62
65685;BME280;52405;50.844;-1.062;2022-12-07T13:18:02;102203.66;;;7.47;60.08
65685;BME280;52405;50.844;-1.062;2022-12-07T13:20:51;102221.59;;;7.57;59.31
65685;BME280;52405;50.844;-1.062;2022-12-07T13:23:20;102169.84;;;7.32;59.68
65685;BME280;52405;50.844;-1.062;2022-12-07T13:26:12;102219.94;;;7.58;59.84
65685;BME280;52405;50.844;-1.062;2022-12-07T13:28:44;102190.84;;;7.37;59.73
65685;BME280;52405;50.844;-1.062;2022-12-07T13:33:57;102211.53;;;7.48;59.06
65685;BME280;52405;50.844;-1.062;2022-12-07T13:36:33;102135.72;;;7.01;58.73
65685;BME280;52405;50.844;-1.062;2022-12-07T13:39:16;102203.88;;;7.38;58.28
65685;BME280;52405;50.844;-1.062;2022-12-07T13:41:43;102215.78;;;7.36;59.49
65685;BME280;52405;50.844;-1.062;2022-12-07T13:44:12;102201.06;;;7.35;58.85
65685;BME280;52405;50.844;-1.062;2022-12-07T13:46:47;102188.59;;;7.29;58.55
65685;BME280;52405;50.844;-1.062;2022-12-07T13:49:25;102172.53;;;7.22;58.87
65685;BME280;52405;50.844;-1.062;2022-12-07T13:51:53;102193.06;;;7.44;59.21
65685;BME280;52405;50.844;-1.062;2022-12-07T13:54:20;102188.25;;;7.48;58.57
65685;BME280;52405;50.844;-1.062;2022-12-07T13:56:50;102187.69;;;7.52;58.81
65685;BME280;52405;50.844;-1.062;2022-12-07T13:59:19;102179.34;;;7.57;58.88
65685;BME280;52405;50.844;-1.062;2022-12-07T14:01:48;102112.78;;;7.17;58.27
65685;BME280;52405;50.844;-1.062;2022-12-07T14:04:34;102166.53;;;7.58;58.26
65685;BME280;52405;50.844;-1.062;2022-12-07T14:07:15;102131.50;;;7.38;58.12
65685;BME280;52405;50.844;-1.062;2022-12-07T14:09:54;102159.78;;;7.60;57.96
65685;BME280;52405;50.844;-1.062;2022-12-07T14:12:20;102160.66;;;7.61;57.90
65685;BME280;52405;50.844;-1.062;2022-12-07T14:14:49;102150.59;;;7.52;58.04
65685;BME280;52405;50.844;-1.062;2022-12-07T14:17:22;102141.91;;;7.51;57.95
65685;BME280;52405;50.844;-1.062;2022-12-07T14:19:54;102146.72;;;7.59;58.16
65685;BME280;52405;50.844;-1.062;2022-12-07T14:22:27;102141.16;;;7.52;57.76
65685;BME280;52405;50.844;-1.062;2022-12-07T14:25:00;102151.34;;;7.63;57.18
65685;BME280;52405;50.844;-1.062;2022-12-07T14:27:32;102154.03;;;7.64;56.99
65685;BME280;52405;50.844;-1.062;2022-12-07T14:30:03;102143.13;;;7.68;56.81
65685;BME280;52405;50.844;-1.062;2022-12-07T14:32:30;102134.91;;;7.62;57.43
65685;BME280;52405;50.844;-1.062;2022-12-07T14:35:10;102131.44;;;7.62;56.94
65685;BME280;52405;50.844;-1.062;2022-12-07T14:37:37;102137.50;;;7.62;57.39
65685;BME280;52405;50.844;-1.062;2022-12-07T14:40:04;102135.50;;;7.58;57.49
65685;BME280;52405;50.844;-1.062;2022-12-07T14:42:31;102107.47;;;7.39;56.84
65685;BME280;52405;50.844;-1.062;2022-12-07T14:44:57;102140.03;;;7.49;57.54
65685;BME280;52405;50.844;-1.062;2022-12-07T14:47:24;102138.03;;;7.45;57.82
65685;BME280;52405;50.844;-1.062;2022-12-07T14:49:50;102133.50;;;7.42;57.48
65685;BME280;52405;50.844;-1.062;2022-12-07T14:52:26;102147.00;;;7.38;56.78
65685;BME280;52405;50.844;-1.062;2022-12-07T14:54:52;102137.03;;;7.31;56.98